Terminal Aerodrome Forecast
Issued by NWS Blacksburg, VA

Current Version | Previous Version | Graphics & Text | Print | Product List | Glossary On
Versions: 1 2 3 4 5 6 7 8 9 10 11 12 13 14 15 16 17 18 19 20 21 22 23 24 25 26 27 28 29 30 31 32 33 34 35 36 37 38 39 40 41 42 43 44 45 46 47 48 49
000
FTUS41 KRNK 210315 AAB
TAFBLF
TAF AMD
KBLF 210315Z 2103/2124 29010G20KT 5SM -SHRA BKN012 OVC025
     FM210600 28012KT P6SM -SHRA OVC020
     FM211400 27009G19KT P6SM SCT025 BKN050
     FM211800 27012G25KT P6SM BKN250=

USA.gov is the U.S. government's official web portal to all federal, state and local government web resources and services.